createdAt,value
2019-01-21T00:01:02.412Z,97428.84
2019-01-21T00:02:05.712Z,97429.89
2019-01-21T00:03:14.286Z,97427.25
2019-01-21T00:04:14.041Z,97427.78
2019-01-21T00:05:17.328Z,97430.14
2019-01-21T00:06:20.690Z,97427.78
2019-01-21T00:07:24.049Z,97429.89
2019-01-21T00:08:27.442Z,97430.95
2019-01-21T00:09:30.742Z,97433.08
2019-01-21T00:10:34.105Z,97434.91
2019-01-21T00:11:37.742Z,97430.95
2019-01-21T00:12:41.433Z,97434.13
2019-01-21T00:13:44.725Z,97429.89
2019-01-21T00:14:48.061Z,97432.54
2019-01-21T00:15:51.443Z,97435.19
2019-01-21T00:16:54.838Z,97434.65
2019-01-21T00:17:58.124Z,97433.59
2019-01-21T00:19:01.414Z,97434.14
2019-01-21T00:20:06.780Z,97433.61
2019-01-21T00:21:10.080Z,97433.85
2019-01-21T00:22:13.370Z,97436.78
2019-01-21T00:23:16.666Z,97440.21
2019-01-21T00:24:19.969Z,97443.40
2019-01-21T00:25:23.295Z,97443.40
2019-01-21T00:26:26.582Z,97446.56
2019-01-21T00:27:29.870Z,97441.53
2019-01-21T00:28:33.163Z,97445.78
2019-01-21T00:29:36.459Z,97438.63
2019-01-21T00:30:39.779Z,97440.48
2019-01-21T00:31:43.169Z,97447.37
2019-01-21T00:32:46.443Z,97447.37
2019-01-21T00:33:49.741Z,97447.37
2019-01-21T00:34:53.053Z,97446.05
2019-01-21T00:35:56.341Z,97448.96
2019-01-21T00:37:03.614Z,97444.98
2019-01-21T00:38:04.657Z,97445.23
2019-01-21T00:39:07.954Z,97447.87
2019-01-21T00:40:13.785Z,97453.45
2019-01-21T00:41:17.117Z,97449.73
2019-01-21T00:42:20.408Z,97449.73
2019-01-21T00:43:23.713Z,97452.92
2019-01-21T00:44:27.010Z,97454.25
2019-01-21T00:45:30.302Z,97457.69
2019-01-21T00:46:33.625Z,97456.36
2019-01-21T00:47:36.990Z,97456.36
2019-01-21T00:48:40.285Z,97459.28
2019-01-21T00:49:43.607Z,97462.44
2019-01-21T00:50:46.967Z,97467.20
2019-01-21T00:51:50.302Z,97465.38
2019-01-21T00:52:53.931Z,97467.73
2019-01-21T00:53:57.228Z,97469.05
2019-01-21T00:55:00.527Z,97469.06
2019-01-21T00:56:03.831Z,97463.76
2019-01-21T00:57:07.206Z,97466.95
2019-01-21T00:58:10.554Z,97468.55
2019-01-21T00:59:13.856Z,97471.19
2019-01-21T01:00:20.160Z,97472.24
2019-01-21T01:01:23.841Z,97467.48
2019-01-21T01:02:27.162Z,97476.22
2019-01-21T01:03:30.528Z,97468.80
2019-01-21T01:04:33.899Z,97472.78
2019-01-21T01:05:37.205Z,97479.13
2019-01-21T01:06:40.500Z,97471.98
2019-01-21T01:07:43.827Z,97473.02
2019-01-21T01:08:47.119Z,97471.45
2019-01-21T01:09:50.412Z,97467.22
2019-01-21T01:10:53.786Z,97473.83
2019-01-21T01:11:57.084Z,97472.78
2019-01-21T01:13:00.403Z,97471.70
2019-01-21T01:14:03.696Z,97474.08
2019-01-21T01:15:09.331Z,97467.20
2019-01-21T01:16:12.625Z,97469.83
2019-01-21T01:17:15.986Z,97465.84
2019-01-21T01:18:19.322Z,97460.30
2019-01-21T01:19:22.606Z,97463.20
2019-01-21T01:20:25.902Z,97465.58
2019-01-21T01:21:29.189Z,97463.73
2019-01-21T01:22:32.489Z,97465.58
2019-01-21T01:23:35.851Z,97462.95
2019-01-21T01:24:39.141Z,97463.20
2019-01-21T01:25:42.433Z,97463.47
2019-01-21T01:26:45.726Z,97461.08
2019-01-21T01:27:49.012Z,97461.63
2019-01-21T01:28:52.343Z,97465.05
2019-01-21T01:29:56.082Z,97463.23
2019-01-21T01:30:59.371Z,97462.15
2019-01-21T01:32:02.673Z,97461.64
2019-01-21T01:33:05.966Z,97458.73
2019-01-21T01:34:09.285Z,97458.72
2019-01-21T01:35:14.026Z,97458.72
2019-01-21T01:36:17.323Z,97451.84
2019-01-21T01:37:20.616Z,97456.61
2019-01-21T01:38:23.908Z,97455.53
2019-01-21T01:39:27.241Z,97450.26
2019-01-21T01:40:30.603Z,97450.79
2019-01-21T01:41:33.904Z,97451.06
2019-01-21T01:42:37.196Z,97451.06
2019-01-21T01:43:40.489Z,97447.89
2019-01-21T01:44:43.834Z,97447.89
2019-01-21T01:45:47.126Z,97448.41
2019-01-21T01:46:50.423Z,97454.75
2019-01-21T01:47:59.547Z,97453.16
2019-01-21T01:49:02.836Z,97450.80
2019-01-21T01:50:07.815Z,97454.22
2019-01-21T01:51:11.107Z,97451.84
2019-01-21T01:52:14.401Z,97454.50
2019-01-21T01:53:17.700Z,97451.61
2019-01-21T01:54:21.375Z,97459.00
2019-01-21T01:55:25.169Z,97459.55
2019-01-21T01:56:28.470Z,97457.16
2019-01-21T01:57:31.763Z,97453.72
2019-01-21T01:58:35.050Z,97455.31
2019-01-21T01:59:38.349Z,97451.07
2019-01-21T02:00:41.663Z,97446.83
2019-01-21T02:01:45.027Z,97449.47
2019-01-21T02:02:48.329Z,97449.20
2019-01-21T02:03:51.630Z,97442.34
2019-01-21T02:04:54.935Z,97440.75
2019-01-21T02:05:58.254Z,97441.53
2019-01-21T02:07:01.552Z,97434.93
2019-01-21T02:08:05.354Z,97441.53
2019-01-21T02:09:09.062Z,97435.72
2019-01-21T02:10:13.762Z,97440.74
2019-01-21T02:11:17.098Z,97442.86
2019-01-21T02:12:20.390Z,97442.06
2019-01-21T02:13:24.028Z,97446.81
2019-01-21T02:14:27.318Z,97445.77
2019-01-21T02:15:30.607Z,97443.91
2019-01-21T02:16:34.053Z,97446.83
2019-01-21T02:17:37.355Z,97447.35
2019-01-21T02:18:40.639Z,97445.78
2019-01-21T02:19:43.987Z,97451.86
2019-01-21T02:20:47.290Z,97447.62
2019-01-21T02:21:50.967Z,97452.66
2019-01-21T02:22:55.400Z,97443.12
2019-01-21T02:24:01.954Z,97446.31
2019-01-21T02:25:06.685Z,97448.42
2019-01-21T02:26:10.674Z,97449.20
2019-01-21T02:27:14.792Z,97446.30
2019-01-21T02:28:27.445Z,97443.91
2019-01-21T02:29:34.282Z,97449.20
2019-01-21T02:30:43.725Z,97451.07
2019-01-21T02:32:08.600Z,97450.53
2019-01-21T02:33:24.037Z,97451.07
2019-01-21T02:34:53.840Z,97449.47
2019-01-21T02:36:00.394Z,97446.03
2019-01-21T02:37:12.435Z,97444.70
2019-01-21T02:38:37.069Z,97443.91
2019-01-21T02:40:00.385Z,97449.20
2019-01-21T02:41:09.947Z,97452.38
2019-01-21T02:42:28.412Z,97447.09
2019-01-21T02:43:34.970Z,97447.89
2019-01-21T02:44:56.633Z,97443.91
2019-01-21T02:46:05.902Z,97447.62
2019-01-21T02:47:15.627Z,97455.31
2019-01-21T02:48:28.111Z,97450.81
2019-01-21T02:49:51.404Z,97450.52
2019-01-21T02:51:03.817Z,97455.04
2019-01-21T02:52:16.692Z,97453.98
2019-01-21T02:53:29.561Z,97459.79
2019-01-21T02:54:36.120Z,97458.73
2019-01-21T02:55:51.110Z,97454.50
2019-01-21T02:57:03.609Z,97455.31
2019-01-21T02:58:25.249Z,97456.11
2019-01-21T02:59:35.391Z,97458.73
2019-01-21T03:00:44.870Z,97465.08
2019-01-21T03:02:09.408Z,97459.55
2019-01-21T03:03:32.828Z,97457.95
2019-01-21T03:04:56.218Z,97462.70
2019-01-21T03:06:14.582Z,97451.06
2019-01-21T03:07:23.666Z,97458.48
2019-01-21T03:08:45.121Z,97448.97
2019-01-21T03:09:54.754Z,97456.63
2019-01-21T03:11:16.387Z,97452.66
2019-01-21T03:12:50.248Z,97457.41
2019-01-21T03:14:02.401Z,97459.50
2019-01-21T03:15:24.098Z,97453.97
2019-01-21T03:16:42.014Z,97459.00
2019-01-21T03:18:08.243Z,97460.04
2019-01-21T03:19:14.868Z,97463.73
2019-01-21T03:20:27.060Z,97466.12
2019-01-21T03:21:56.556Z,97464.02
2019-01-21T03:23:05.818Z,97465.08
2019-01-21T03:24:30.093Z,97466.91
2019-01-21T03:25:56.094Z,97464.28
2019-01-21T03:27:25.408Z,97458.72
2019-01-21T03:28:38.062Z,97460.28
2019-01-21T03:30:09.696Z,97464.01
2019-01-21T03:31:35.754Z,97465.05
2019-01-21T03:33:08.171Z,97465.59
2019-01-21T03:34:23.985Z,97460.56
2019-01-21T03:35:45.632Z,97460.57
2019-01-21T03:36:58.207Z,97458.96
2019-01-21T03:38:10.381Z,97462.40
2019-01-21T03:39:16.934Z,97461.09
2019-01-21T03:40:52.360Z,97462.66
2019-01-21T03:42:00.562Z,97463.42
2019-01-21T03:43:21.947Z,97464.50
2019-01-21T03:44:40.860Z,97466.05
2019-01-21T03:46:08.651Z,97461.05
2019-01-21T03:47:21.068Z,97463.66
2019-01-21T03:48:27.634Z,97466.82
2019-01-21T03:49:36.713Z,97466.02
2019-01-21T03:50:52.391Z,97464.45
2019-01-21T03:52:13.326Z,97461.02
2019-01-21T03:53:44.351Z,97460.52
2019-01-21T03:54:48.743Z,97467.14
2019-01-21T03:55:55.538Z,97467.68
2019-01-21T03:57:02.142Z,97466.36
2019-01-21T03:58:20.750Z,97467.69
2019-01-21T03:59:36.324Z,97467.98
2019-01-21T04:00:45.714Z,97463.23
2019-01-21T04:02:22.491Z,97466.92
2019-01-21T04:03:45.441Z,97459.77
2019-01-21T04:04:52.004Z,97462.69
2019-01-21T04:06:10.150Z,97464.80
2019-01-21T04:07:16.778Z,97465.06
2019-01-21T04:08:29.490Z,97466.38
2019-01-21T04:09:44.856Z,97464.02
2019-01-21T04:10:57.234Z,97462.94
2019-01-21T04:12:11.909Z,97464.27
2019-01-21T04:13:41.176Z,97461.38
2019-01-21T04:14:56.599Z,97461.11
2019-01-21T04:16:09.468Z,97464.27
2019-01-21T04:17:28.161Z,97467.70
2019-01-21T04:18:49.772Z,97468.52
2019-01-21T04:20:10.810Z,97470.09
2019-01-21T04:21:23.188Z,97470.36
2019-01-21T04:22:29.748Z,97465.33
2019-01-21T04:23:50.919Z,97474.30
2019-01-21T04:25:03.044Z,97471.94
2019-01-21T04:26:30.537Z,97471.41
2019-01-21T04:27:54.537Z,97474.32
2019-01-21T04:29:06.883Z,97471.71
2019-01-21T04:30:21.985Z,97475.44
2019-01-21T04:31:48.215Z,97470.92
2019-01-21T04:33:01.089Z,97478.84
2019-01-21T04:34:08.024Z,97474.62
2019-01-21T04:35:35.776Z,97475.66
2019-01-21T04:36:54.005Z,97477.48
2019-01-21T04:38:09.950Z,97476.44
2019-01-21T04:39:19.194Z,97473.27
2019-01-21T04:40:28.846Z,97475.67
2019-01-21T04:41:53.521Z,97475.95
2019-01-21T04:43:02.960Z,97477.80
2019-01-21T04:44:24.745Z,97480.17
2019-01-21T04:45:37.681Z,97476.47
2019-01-21T04:47:03.733Z,97478.83
2019-01-21T04:48:21.675Z,97476.73
2019-01-21T04:49:30.805Z,97478.06
2019-01-21T04:50:55.737Z,97482.80
2019-01-21T04:52:20.478Z,97479.61
2019-01-21T04:53:48.545Z,97484.64
2019-01-21T04:54:57.830Z,97481.19
2019-01-21T04:56:22.820Z,97483.82
2019-01-21T04:57:46.174Z,97488.33
2019-01-21T04:59:14.229Z,97487.28
2019-01-21T05:00:31.339Z,97487.02
2019-01-21T05:01:53.269Z,97488.86
2019-01-21T05:03:14.987Z,97487.27
2019-01-21T05:04:44.250Z,97494.97
2019-01-21T05:06:05.699Z,97498.14
2019-01-21T05:07:30.282Z,97493.37
2019-01-21T05:08:42.565Z,97494.67
2019-01-21T05:10:12.008Z,97503.16
2019-01-21T05:11:30.338Z,97502.37
2019-01-21T05:12:39.695Z,97506.08
2019-01-21T05:13:46.334Z,97503.45
2019-01-21T05:15:20.294Z,97503.42
2019-01-21T05:16:35.610Z,97505.02
2019-01-21T05:17:48.031Z,97499.19
2019-01-21T05:18:57.216Z,97505.56
2019-01-21T05:20:37.879Z,97508.45
2019-01-21T05:21:46.993Z,97511.09
2019-01-21T05:22:53.550Z,97509.77
2019-01-21T05:24:22.500Z,97505.81
2019-01-21T05:25:29.062Z,97508.45
2019-01-21T05:26:50.729Z,97512.69
2019-01-21T05:28:18.156Z,97508.70
2019-01-21T05:29:45.955Z,97514.78
2019-01-21T05:30:55.786Z,97519.30
2019-01-21T05:32:14.527Z,97523.02
2019-01-21T05:33:33.045Z,97520.39
2019-01-21T05:34:51.523Z,97527.26
2019-01-21T05:36:14.749Z,97521.97
2019-01-21T05:37:27.031Z,97529.12
2019-01-21T05:38:36.567Z,97524.37
2019-01-21T05:39:55.228Z,97531.52
2019-01-21T05:41:10.394Z,97527.26
2019-01-21T05:42:31.663Z,97524.36
2019-01-21T05:43:44.013Z,97524.60
2019-01-21T05:45:25.572Z,97528.06
2019-01-21T05:46:40.535Z,97533.36
2019-01-21T05:48:01.777Z,97529.38
2019-01-21T05:49:30.932Z,97531.52
2019-01-21T05:50:58.811Z,97527.26
2019-01-21T05:52:23.384Z,97525.42
2019-01-21T05:53:46.270Z,97530.98
2019-01-21T05:55:12.129Z,97534.96
2019-01-21T05:56:24.376Z,97529.66
2019-01-21T05:57:42.956Z,97539.67
2019-01-21T05:59:10.964Z,97545.25
2019-01-21T06:00:19.954Z,97537.31
2019-01-21T06:01:52.688Z,97539.42
2019-01-21T06:03:17.556Z,97534.67
2019-01-21T06:04:43.274Z,97537.31
2019-01-21T06:06:06.457Z,97537.84
2019-01-21T06:07:13.015Z,97542.64
2019-01-21T06:08:28.980Z,97541.83
2019-01-21T06:09:51.787Z,97542.62
2019-01-21T06:11:01.120Z,97547.64
2019-01-21T06:12:23.328Z,97541.56
2019-01-21T06:13:35.761Z,97542.34
2019-01-21T06:14:54.600Z,97541.79
2019-01-21T06:16:07.311Z,97550.53
2019-01-21T06:17:28.941Z,97543.94
2019-01-21T06:18:47.444Z,97548.14
2019-01-21T06:20:03.185Z,97543.63
2019-01-21T06:21:21.659Z,97551.05
2019-01-21T06:22:31.006Z,97547.05
2019-01-21T06:23:56.261Z,97547.86
2019-01-21T06:25:05.743Z,97544.66
2019-01-21T06:26:12.298Z,97548.10
2019-01-21T06:27:37.029Z,97547.59
2019-01-21T06:28:58.023Z,97548.92
2019-01-21T06:30:21.000Z,97545.76
2019-01-21T06:31:42.668Z,97547.34
2019-01-21T06:33:16.270Z,97543.66
2019-01-21T06:34:28.417Z,97555.33
2019-01-21T06:35:46.705Z,97547.39
2019-01-21T06:36:53.269Z,97547.13
2019-01-21T06:38:08.572Z,97542.38
2019-01-21T06:39:36.094Z,97545.58
2019-01-21T06:40:45.609Z,97540.80
2019-01-21T06:42:15.068Z,97545.81
2019-01-21T06:43:30.377Z,97544.77
2019-01-21T06:44:39.720Z,97545.82
2019-01-21T06:46:15.258Z,97554.00
2019-01-21T06:47:36.700Z,97550.81
2019-01-21T06:49:04.683Z,97553.20
2019-01-21T06:50:34.085Z,97560.11
2019-01-21T06:51:57.402Z,97553.77
2019-01-21T06:53:21.963Z,97550.05
2019-01-21T06:54:31.296Z,97552.18
2019-01-21T06:55:46.720Z,97556.93
2019-01-21T06:57:13.256Z,97554.55
2019-01-21T06:58:32.021Z,97557.72
2019-01-21T06:59:56.443Z,97556.67
2019-01-21T07:01:22.770Z,97556.39
2019-01-21T07:02:41.163Z,97556.66
2019-01-21T07:04:13.499Z,97562.48
2019-01-21T07:05:48.861Z,97565.42
2019-01-21T07:07:03.891Z,97564.87
2019-01-21T07:08:19.432Z,97564.34
2019-01-21T07:09:34.618Z,97568.59
2019-01-21T07:10:44.012Z,97572.04
2019-01-21T07:11:53.618Z,97571.50
2019-01-21T07:13:00.189Z,97573.10
2019-01-21T07:14:24.920Z,97579.19
2019-01-21T07:15:31.523Z,97579.72
2019-01-21T07:16:47.184Z,97581.05
2019-01-21T07:17:59.970Z,97586.09
2019-01-21T07:19:23.420Z,97581.57
2019-01-21T07:20:29.979Z,97583.71
2019-01-21T07:21:55.536Z,97591.39
2019-01-21T07:23:23.092Z,97586.63
2019-01-21T07:24:46.381Z,97595.91
2019-01-21T07:26:22.858Z,97593.50
2019-01-21T07:27:32.161Z,97594.59
2019-01-21T07:28:43.870Z,97597.48
2019-01-21T07:30:05.279Z,97597.47
2019-01-21T07:31:26.230Z,97598.81
2019-01-21T07:32:41.566Z,97599.89
2019-01-21T07:33:48.168Z,97605.97
2019-01-21T07:35:16.134Z,97599.36
2019-01-21T07:36:22.694Z,97599.08
2019-01-21T07:37:41.280Z,97604.66
2019-01-21T07:38:50.647Z,97607.03
2019-01-21T07:40:16.841Z,97605.47
2019-01-21T07:41:32.624Z,97604.92
2019-01-21T07:43:09.416Z,97606.80
2019-01-21T07:44:38.901Z,97611.02
2019-01-21T07:45:57.863Z,97609.95
2019-01-21T07:47:16.835Z,97608.36
2019-01-21T07:48:23.423Z,97612.60
2019-01-21T07:49:48.287Z,97619.50
2019-01-21T07:51:28.178Z,97615.25
2019-01-21T07:52:52.877Z,97616.84
2019-01-21T07:53:59.541Z,97621.09
2019-01-21T07:55:06.107Z,97618.17
2019-01-21T07:56:32.399Z,97616.59
2019-01-21T07:57:54.185Z,97616.05
2019-01-21T07:59:12.371Z,97620.55
2019-01-21T08:00:24.941Z,97621.09
2019-01-21T08:01:43.147Z,97618.44
2019-01-21T08:02:49.713Z,97622.15
2019-01-21T08:04:16.797Z,97624.25
2019-01-21T08:05:26.164Z,97627.17
2019-01-21T08:06:38.358Z,97622.92
2019-01-21T08:07:47.662Z,97628.50
2019-01-21T08:08:56.977Z,97625.33
2019-01-21T08:10:06.304Z,97627.71
2019-01-21T08:11:28.129Z,97625.33
2019-01-21T08:12:53.109Z,97625.33
2019-01-21T08:14:14.963Z,97627.70
2019-01-21T08:15:54.878Z,97630.87
2019-01-21T08:17:07.448Z,97630.36
2019-01-21T08:18:48.845Z,97630.10
2019-01-21T08:20:16.742Z,97637.78
2019-01-21T08:21:50.770Z,97635.66
2019-01-21T08:23:15.008Z,97634.59
2019-01-21T08:24:33.431Z,97638.02
2019-01-21T08:25:55.514Z,97634.83
2019-01-21T08:27:19.377Z,97640.93
2019-01-21T08:28:41.159Z,97645.20
2019-01-21T08:29:47.723Z,97644.38
2019-01-21T08:31:03.212Z,97643.33
2019-01-21T08:32:28.168Z,97643.87
2019-01-21T08:33:37.309Z,97644.36
2019-01-21T08:35:02.062Z,97644.91
2019-01-21T08:36:31.442Z,97640.66
2019-01-21T08:37:43.226Z,97641.48
2019-01-21T08:39:07.642Z,97639.38
2019-01-21T08:40:16.894Z,97643.34
2019-01-21T08:41:37.906Z,97648.09
2019-01-21T08:43:13.334Z,97648.08
2019-01-21T08:44:28.779Z,97652.86
2019-01-21T08:45:38.522Z,97654.20
2019-01-21T08:46:53.847Z,97656.04
2019-01-21T08:48:22.705Z,97653.16
2019-01-21T08:49:52.798Z,97657.12
2019-01-21T08:51:22.007Z,97653.63
2019-01-21T08:52:40.454Z,97657.07
2019-01-21T08:53:49.715Z,97660.50
2019-01-21T08:55:15.446Z,97663.66
2019-01-21T08:56:27.783Z,97659.69
2019-01-21T08:57:43.150Z,97661.53
2019-01-21T08:58:52.548Z,97659.16
2019-01-21T09:00:14.027Z,97660.23
2019-01-21T09:01:29.630Z,97664.77
2019-01-21T09:02:57.380Z,97664.21
2019-01-21T09:04:18.889Z,97669.77
2019-01-21T09:05:28.686Z,97668.95
2019-01-21T09:06:50.547Z,97669.25
2019-01-21T09:08:24.529Z,97669.24
2019-01-21T09:09:33.920Z,97663.08
2019-01-21T09:10:40.484Z,97661.70
2019-01-21T09:12:08.487Z,97664.89
2019-01-21T09:13:20.939Z,97661.13
2019-01-21T09:14:30.029Z,97661.70
2019-01-21T09:15:36.588Z,97667.00
2019-01-21T09:16:58.367Z,97665.67
2019-01-21T09:18:07.594Z,97662.27
2019-01-21T09:19:23.110Z,97660.18
2019-01-21T09:20:45.945Z,97658.59
2019-01-21T09:22:07.460Z,97660.67
2019-01-21T09:23:35.161Z,97661.78
2019-01-21T09:24:59.590Z,97666.03
2019-01-21T09:26:24.427Z,97661.47
2019-01-21T09:27:47.592Z,97663.33
2019-01-21T09:29:09.063Z,97667.84
2019-01-21T09:30:30.789Z,97665.16
2019-01-21T09:31:37.396Z,97665.66
2019-01-21T09:32:46.545Z,97665.66
2019-01-21T09:33:55.851Z,97668.30
2019-01-21T09:35:30.854Z,97660.58
2019-01-21T09:36:49.438Z,97663.80
2019-01-21T09:38:15.488Z,97660.61
2019-01-21T09:39:46.520Z,97660.68
2019-01-21T09:41:08.339Z,97655.36
2019-01-21T09:42:17.614Z,97653.23
2019-01-21T09:43:26.895Z,97657.73
2019-01-21T09:44:39.438Z,97652.11
2019-01-21T09:45:48.920Z,97651.32
2019-01-21T09:46:51.278Z,97654.27
2019-01-21T09:47:53.722Z,97651.08
2019-01-21T09:48:56.039Z,97648.73
2019-01-21T09:49:59.409Z,97654.59
2019-01-21T09:51:05.011Z,97654.06
2019-01-21T09:52:08.397Z,97652.97
2019-01-21T09:53:11.878Z,97652.71
2019-01-21T09:54:15.232Z,97650.34
2019-01-21T09:55:18.581Z,97647.95
2019-01-21T09:56:22.185Z,97642.86
2019-01-21T09:57:25.486Z,97647.09
2019-01-21T09:58:28.980Z,97645.48
2019-01-21T09:59:33.320Z,97641.52
2019-01-21T10:00:36.619Z,97637.80
2019-01-21T10:01:39.921Z,97637.78
2019-01-21T10:02:43.216Z,97639.91
2019-01-21T10:03:46.551Z,97633.53
2019-01-21T10:04:50.864Z,97631.72
2019-01-21T10:05:57.576Z,97628.03
2019-01-21T10:07:19.440Z,97623.48
2019-01-21T10:08:25.994Z,97618.17
2019-01-21T10:09:41.636Z,97622.14
2019-01-21T10:11:04.394Z,97626.41
2019-01-21T10:12:27.619Z,97621.10
2019-01-21T10:13:52.093Z,97614.94
2019-01-21T10:15:16.669Z,97616.83
2019-01-21T10:16:23.304Z,97615.23
2019-01-21T10:17:38.665Z,97617.86
2019-01-21T10:19:01.417Z,97617.63
2019-01-21T10:20:10.761Z,97614.73
2019-01-21T10:21:17.356Z,97615.78
2019-01-21T10:22:32.959Z,97615.78
2019-01-21T10:23:48.406Z,97608.59
2019-01-21T10:25:06.747Z,97606.23
2019-01-21T10:26:22.534Z,97603.31
2019-01-21T10:27:40.584Z,97604.91
2019-01-21T10:28:55.041Z,97604.88
2019-01-21T10:30:10.467Z,97603.27
2019-01-21T10:31:22.801Z,97600.31
2019-01-21T10:32:32.438Z,97604.53
2019-01-21T10:33:47.652Z,97606.42
2019-01-21T10:34:54.310Z,97613.62
2019-01-21T10:36:21.774Z,97608.57
2019-01-21T10:37:34.577Z,97597.39
2019-01-21T10:38:59.330Z,97603.70
2019-01-21T10:40:26.941Z,97605.83
2019-01-21T10:41:39.293Z,97609.84
2019-01-21T10:42:51.428Z,97605.59
2019-01-21T10:44:14.637Z,97607.93
2019-01-21T10:45:37.716Z,97602.05
2019-01-21T10:47:11.732Z,97607.63
2019-01-21T10:48:24.188Z,97607.07
2019-01-21T10:49:49.206Z,97604.97
2019-01-21T10:51:04.888Z,97602.05
2019-01-21T10:52:23.356Z,97610.55
2019-01-21T10:53:47.971Z,97605.51
2019-01-21T10:55:29.483Z,97605.67
2019-01-21T10:56:42.037Z,97600.02
2019-01-21T10:57:48.600Z,97599.80
2019-01-21T10:59:00.837Z,97600.33
2019-01-21T11:00:28.835Z,97597.63
2019-01-21T11:01:56.737Z,97599.00
2019-01-21T11:03:09.059Z,97597.44
2019-01-21T11:04:21.728Z,97601.69
2019-01-21T11:05:40.482Z,97597.97
2019-01-21T11:07:11.221Z,97598.69
2019-01-21T11:08:20.397Z,97597.59
2019-01-21T11:09:26.974Z,97602.95
2019-01-21T11:10:39.192Z,97596.34
2019-01-21T11:11:54.843Z,97598.77
2019-01-21T11:13:13.693Z,97598.77
2019-01-21T11:14:32.400Z,97596.14
2019-01-21T11:15:44.652Z,97600.13
2019-01-21T11:17:13.770Z,97597.44
2019-01-21T11:18:23.410Z,97606.70
2019-01-21T11:19:52.718Z,97604.08
2019-01-21T11:20:59.274Z,97600.13
2019-01-21T11:22:06.309Z,97601.49
2019-01-21T11:23:30.839Z,97600.42
2019-01-21T11:25:09.722Z,97598.27
2019-01-21T11:26:25.305Z,97593.22
2019-01-21T11:27:37.631Z,97594.31
2019-01-21T11:29:01.782Z,97595.05
2019-01-21T11:30:11.131Z,97598.43
2019-01-21T11:31:32.396Z,97593.91
2019-01-21T11:32:59.356Z,97596.30
2019-01-21T11:34:25.404Z,97593.37
2019-01-21T11:35:31.958Z,97587.23
2019-01-21T11:36:41.269Z,97589.84
2019-01-21T11:38:12.235Z,97587.14
2019-01-21T11:39:21.432Z,97585.06
2019-01-21T11:40:36.441Z,97579.52
2019-01-21T11:41:55.112Z,97580.02
2019-01-21T11:43:16.877Z,97577.92
2019-01-21T11:44:38.493Z,97575.76
2019-01-21T11:46:08.895Z,97576.82
2019-01-21T11:47:36.865Z,97573.36
2019-01-21T11:48:59.935Z,97574.43
2019-01-21T11:50:10.503Z,97571.59
2019-01-21T11:51:32.979Z,97576.14
2019-01-21T11:52:42.392Z,97564.41
2019-01-21T11:54:16.696Z,97568.13
2019-01-21T11:55:37.884Z,97571.28
2019-01-21T11:56:56.393Z,97572.08
2019-01-21T11:58:33.153Z,97577.39
2019-01-21T11:59:51.308Z,97579.00
2019-01-21T12:01:13.045Z,97580.59
2019-01-21T12:02:27.932Z,97582.48
2019-01-21T12:03:49.091Z,97580.66
2019-01-21T12:04:55.679Z,97576.91
2019-01-21T12:06:01.007Z,97578.77
2019-01-21T12:07:13.349Z,97578.77
2019-01-21T12:08:22.651Z,97580.13
2019-01-21T12:09:32.181Z,97577.39
2019-01-21T12:10:44.492Z,97577.31
2019-01-21T12:11:54.011Z,97573.55
2019-01-21T12:13:12.751Z,97570.09
2019-01-21T12:14:31.227Z,97568.80
2019-01-21T12:16:09.534Z,97570.45
2019-01-21T12:17:24.682Z,97570.94
2019-01-21T12:18:49.495Z,97564.86
2019-01-21T12:20:16.867Z,97563.97
2019-01-21T12:21:27.104Z,97570.89
2019-01-21T12:22:42.200Z,97563.23
2019-01-21T12:24:00.568Z,97568.33
2019-01-21T12:25:28.284Z,97567.34
2019-01-21T12:27:08.247Z,97567.03
2019-01-21T12:28:34.482Z,97568.41
2019-01-21T12:29:41.032Z,97561.03
2019-01-21T12:30:47.625Z,97557.05
2019-01-21T12:32:00.151Z,97562.13
2019-01-21T12:33:18.852Z,97565.78
2019-01-21T12:34:49.122Z,97561.27
2019-01-21T12:36:10.881Z,97566.05
2019-01-21T12:37:23.112Z,97561.03
2019-01-21T12:38:35.438Z,97558.42
2019-01-21T12:39:47.999Z,97560.81
2019-01-21T12:41:21.619Z,97557.62
2019-01-21T12:42:31.041Z,97560.55
2019-01-21T12:43:49.118Z,97551.97
2019-01-21T12:45:21.068Z,97559.94
2019-01-21T12:46:30.358Z,97554.63
2019-01-21T12:47:45.413Z,97551.92
2019-01-21T12:49:09.944Z,97553.52
2019-01-21T12:50:38.049Z,97551.44
2019-01-21T12:51:59.841Z,97552.04
2019-01-21T12:53:09.604Z,97552.84
2019-01-21T12:54:32.632Z,97553.38
2019-01-21T12:55:48.322Z,97548.05
2019-01-21T12:57:09.991Z,97554.95
2019-01-21T12:58:22.745Z,97555.23
2019-01-21T12:59:32.124Z,97552.04
2019-01-21T13:00:58.307Z,97558.42
2019-01-21T13:02:20.071Z,97559.74
2019-01-21T13:03:43.337Z,97560.02
2019-01-21T13:05:07.998Z,97559.41
2019-01-21T13:06:20.142Z,97558.00
2019-01-21T13:07:32.787Z,97557.65
2019-01-21T13:08:45.221Z,97560.31
2019-01-21T13:10:10.146Z,97561.41
2019-01-21T13:11:41.068Z,97561.94
2019-01-21T13:13:05.065Z,97560.61
2019-01-21T13:14:11.629Z,97558.79
2019-01-21T13:15:39.228Z,97561.76
2019-01-21T13:16:51.808Z,97555.72
2019-01-21T13:18:01.083Z,97553.29
2019-01-21T13:19:28.833Z,97558.87
2019-01-21T13:20:38.323Z,97553.55
2019-01-21T13:21:44.889Z,97548.81
2019-01-21T13:22:51.788Z,97554.44
2019-01-21T13:24:01.212Z,97557.16
2019-01-21T13:25:28.930Z,97552.08
2019-01-21T13:26:53.448Z,97551.25
2019-01-21T13:28:05.990Z,97557.39
2019-01-21T13:29:15.419Z,97561.71
2019-01-21T13:30:27.908Z,97559.25
2019-01-21T13:31:43.090Z,97565.12
2019-01-21T13:32:52.342Z,97560.38
2019-01-21T13:34:26.485Z,97557.66
2019-01-21T13:35:38.945Z,97558.72
2019-01-21T13:37:14.162Z,97559.55
2019-01-21T13:38:26.943Z,97562.44
2019-01-21T13:39:55.667Z,97554.80
2019-01-21T13:41:02.250Z,97554.84
2019-01-21T13:42:14.994Z,97557.27
2019-01-21T13:43:45.347Z,97559.09
2019-01-21T13:45:07.027Z,97565.73
2019-01-21T13:46:34.732Z,97563.84
2019-01-21T13:47:46.882Z,97566.72
2019-01-21T13:49:02.396Z,97564.63
2019-01-21T13:50:08.964Z,97571.30
2019-01-21T13:51:24.444Z,97565.26
2019-01-21T13:53:09.622Z,97564.49
2019-01-21T13:54:30.867Z,97565.30
2019-01-21T13:55:40.093Z,97560.28
2019-01-21T13:56:52.503Z,97566.06
2019-01-21T13:58:18.897Z,97567.69
2019-01-21T13:59:34.378Z,97562.93
2019-01-21T14:00:49.310Z,97563.48
2019-01-21T14:02:01.981Z,97557.39
2019-01-21T14:03:11.570Z,97561.87
2019-01-21T14:04:27.048Z,97562.16
2019-01-21T14:05:36.509Z,97561.34
2019-01-21T14:06:55.147Z,97563.97
2019-01-21T14:08:04.570Z,97561.36
2019-01-21T14:09:16.773Z,97569.83
2019-01-21T14:10:29.310Z,97568.50
2019-01-21T14:11:44.807Z,97567.18
2019-01-21T14:13:12.668Z,97568.50
2019-01-21T14:14:25.084Z,97568.80
2019-01-21T14:15:40.678Z,97570.66
2019-01-21T14:17:05.456Z,97570.42
2019-01-21T14:18:14.693Z,97578.41
2019-01-21T14:19:26.100Z,97583.19
2019-01-21T14:20:47.416Z,97581.35
2019-01-21T14:21:56.809Z,97582.14
2019-01-21T14:23:09.032Z,97583.77
2019-01-21T14:24:21.433Z,97582.98
2019-01-21T14:25:43.154Z,97584.84
2019-01-21T14:27:04.941Z,97581.16
2019-01-21T14:28:41.684Z,97580.61
2019-01-21T14:29:53.892Z,97579.55
2019-01-21T14:31:32.382Z,97584.36
2019-01-21T14:32:44.930Z,97582.77
2019-01-21T14:33:54.380Z,97583.03
2019-01-21T14:35:15.357Z,97579.05
2019-01-21T14:36:24.849Z,97591.50
2019-01-21T14:37:37.336Z,97588.05
2019-01-21T14:39:06.457Z,97584.07
2019-01-21T14:40:31.263Z,97587.52
2019-01-21T14:41:43.280Z,97587.00